Time;durP1;ratioP1;P1;durP2;ratioP2;P2;SDS_P1;SDS_P2;PMS_P1;PMS_P2;Temp;Humidity;BMP_temperature;BMP_pressure;BME280_temperature;BME280_humidity;BME280_pressure;Samples;Min_cycle;Max_cycle;Signal;HPM_P1;HPM_P2
2023/04/30 00:02:07;;;;;;;14.57;6.43;;;;;;;7.57;100.00;102249.75;5089788;28;20031;-74
2023/04/30 00:04:32;;;;;;;14.85;6.53;;;;;;;7.52;100.00;102258.16;5089564;28;20046;-74
2023/04/30 00:06:58;;;;;;;16.02;7.38;;;;;;;7.41;100.00;102235.25;5089453;28;20032;-74
2023/04/30 00:09:23;;;;;;;14.88;8.10;;;;;;;7.46;100.00;102248.91;5089297;28;20360;-74
2023/04/30 00:11:48;;;;;;;13.00;6.78;;;;;;;7.44;100.00;102250.03;5089571;28;20032;-74
2023/04/30 00:14:14;;;;;;;17.33;7.38;;;;;;;7.43;100.00;102241.25;5089377;28;20137;-74
2023/04/30 00:16:39;;;;;;;13.98;7.13;;;;;;;7.40;100.00;102246.84;5089452;28;20456;-74
2023/04/30 00:19:05;;;;;;;16.33;7.40;;;;;;;7.31;100.00;102233.56;5089579;28;20032;-74
2023/04/30 00:21:30;;;;;;;15.13;6.80;;;;;;;7.20;100.00;102229.25;5090262;28;20475;-74
2023/04/30 00:23:56;;;;;;;17.50;7.80;;;;;;;7.22;100.00;102241.41;5093537;28;20031;-74
2023/04/30 00:26:21;;;;;;;23.23;7.65;;;;;;;7.20;100.00;102247.81;5093477;28;20035;-74
2023/04/30 00:28:46;;;;;;;14.23;7.38;;;;;;;7.22;100.00;102249.34;5093408;28;20074;-74
2023/04/30 00:31:12;;;;;;;15.40;6.72;;;;;;;7.21;100.00;102246.88;5093421;28;20035;-74
2023/04/30 00:33:37;;;;;;;15.15;6.32;;;;;;;7.15;100.00;102250.06;5093327;28;20071;-74
2023/04/30 00:36:03;;;;;;;15.77;7.32;;;;;;;7.17;100.00;102254.25;5093206;28;20032;-74
2023/04/30 00:38:28;;;;;;;15.15;6.85;;;;;;;7.17;100.00;102248.09;5093453;28;20024;-74
2023/04/30 00:40:54;;;;;;;16.55;7.50;;;;;;;7.19;100.00;102262.06;5093198;28;20027;-74
2023/04/30 00:43:19;;;;;;;14.85;7.00;;;;;;;7.13;100.00;102255.53;5093114;28;20043;-74
2023/04/30 00:45:44;;;;;;;14.98;7.57;;;;;;;7.13;100.00;102265.31;5093238;28;20036;-74
2023/04/30 00:48:10;;;;;;;13.20;7.30;;;;;;;7.11;100.00;102267.25;5091876;28;20043;-74
2023/04/30 00:50:35;;;;;;;13.57;6.72;;;;;;;7.04;100.00;102248.38;5092953;28;20109;-74
2023/04/30 00:53:01;;;;;;;17.17;7.18;;;;;;;6.98;100.00;102248.94;5091561;28;20070;-74
2023/04/30 00:55:27;;;;;;;15.50;7.47;;;;;;;6.95;100.00;102255.38;5093000;28;20024;-74
2023/04/30 00:57:53;;;;;;;16.92;8.38;;;;;;;6.88;100.00;102243.63;5093011;28;20024;-74
2023/04/30 01:00:18;;;;;;;16.58;7.53;;;;;;;6.88;100.00;102240.97;5092862;28;20065;-74
2023/04/30 01:02:44;;;;;;;15.73;7.50;;;;;;;6.89;100.00;102244.44;5093061;28;20103;-74
2023/04/30 01:05:10;;;;;;;18.35;9.50;;;;;;;6.90;100.00;102257.59;5092861;28;20027;-74
2023/04/30 01:07:43;;;;;;;15.20;7.47;;;;;;;6.87;100.00;102255.22;5092726;28;20036;-74
2023/04/30 01:10:11;;;;;;;17.15;7.78;;;;;;;6.86;100.00;102244.72;5092755;28;20028;-74
2023/04/30 01:13:02;;;;;;;16.70;6.95;;;;;;;6.82;100.00;102248.66;5092675;28;20423;-74
2023/04/30 01:15:31;;;;;;;15.60;7.88;;;;;;;6.83;100.00;102251.16;5092442;28;20028;-74
2023/04/30 01:18:12;;;;;;;17.15;8.43;;;;;;;6.80;100.00;102244.31;5092597;28;20093;-74
2023/04/30 01:20:47;;;;;;;16.00;7.73;;;;;;;6.80;100.00;102251.44;5092424;28;20028;-74
2023/04/30 01:23:31;;;;;;;16.52;8.27;;;;;;;6.79;100.00;102245.28;5092461;28;20027;-74
2023/04/30 01:26:00;;;;;;;16.08;8.02;;;;;;;6.78;100.00;102248.91;5092369;28;20042;-74
2023/04/30 01:28:27;;;;;;;15.82;8.30;;;;;;;6.71;100.00;102241.66;5092345;28;20027;-74
2023/04/30 01:30:53;;;;;;;18.35;8.50;;;;;;;6.68;100.00;102248.06;5092171;28;20024;-74
2023/04/30 01:33:18;;;;;;;18.23;9.02;;;;;;;6.66;100.00;102259.78;5091140;28;20070;-74
2023/04/30 01:36:11;;;;;;;15.18;7.88;;;;;;;6.62;100.00;102250.41;5091960;28;20462;-74
2023/04/30 01:38:36;;;;;;;17.17;8.75;;;;;;;6.58;100.00;102252.50;5092053;28;20085;-74
2023/04/30 01:41:05;;;;;;;20.63;7.60;;;;;;;6.56;100.00;102254.47;5091896;28;20413;-74
2023/04/30 01:43:45;;;;;;;15.23;7.72;;;;;;;6.55;100.00;102252.78;5091973;28;20799;-74
2023/04/30 01:46:34;;;;;;;18.55;7.78;;;;;;;6.55;100.00;102248.31;5107243;28;20072;-74
2023/04/30 01:49:18;;;;;;;16.33;7.85;;;;;;;6.52;100.00;102248.59;5091785;28;20101;-74
2023/04/30 01:51:46;;;;;;;18.13;8.43;;;;;;;6.53;100.00;102255.56;5091772;28;20035;-74
2023/04/30 01:54:25;;;;;;;18.85;8.10;;;;;;;6.52;100.00;102253.91;5091954;28;20028;-74
2023/04/30 01:57:03;;;;;;;15.88;8.75;;;;;;;6.49;100.00;102248.84;5091827;28;20169;-74
2023/04/30 01:59:32;;;;;;;17.20;8.50;;;;;;;6.47;100.00;102244.66;5091891;28;20090;-74
2023/04/30 02:01:57;;;;;;;17.10;7.70;;;;;;;6.47;100.00;102244.66;5091729;28;20097;-74
2023/04/30 02:04:22;;;;;;;17.88;8.48;;;;;;;6.47;100.00;102264.06;5091686;28;20059;-74
2023/04/30 02:06:48;;;;;;;19.80;9.45;;;;;;;6.46;100.00;102254.41;5106971;28;20028;-74
2023/04/30 02:09:13;;;;;;;18.38;8.85;;;;;;;6.39;100.00;102245.31;5091356;28;20390;-74
2023/04/30 02:11:39;;;;;;;18.00;9.52;;;;;;;6.41;100.00;102259.28;5072865;28;20039;-74
2023/04/30 02:14:05;;;;;;;16.25;9.25;;;;;;;6.40;100.00;102254.13;5091325;28;20062;-74
2023/04/30 02:16:30;;;;;;;17.70;9.48;;;;;;;6.34;100.00;102261.66;5090128;28;20028;-74
2023/04/30 02:18:55;;;;;;;21.13;9.48;;;;;;;6.35;100.00;102262.47;5091787;28;20056;-73
2023/04/30 02:21:21;;;;;;;21.73;9.45;;;;;;;6.32;100.00;102252.16;5091286;28;20024;-73
2023/04/30 02:23:46;;;;;;;21.35;9.93;;;;;;;6.27;100.00;102251.72;5089913;28;20031;-73
2023/04/30 02:26:12;;;;;;;16.10;8.73;;;;;;;6.31;100.00;102253.09;5091086;28;20055;-73
2023/04/30 02:28:37;;;;;;;16.40;9.05;;;;;;;6.30;100.00;102252.28;5091289;28;20077;-73
2023/04/30 02:31:02;;;;;;;16.20;9.00;;;;;;;6.30;100.00;102246.16;5091068;28;20024;-73
2023/04/30 02:33:28;;;;;;;16.60;9.60;;;;;;;6.30;100.00;102249.63;5091275;28;20028;-73
2023/04/30 02:35:54;;;;;;;19.73;9.80;;;;;;;6.27;100.00;102255.19;5091071;28;20024;-73
2023/04/30 02:38:19;;;;;;;19.83;9.52;;;;;;;6.25;100.00;102251.00;5089675;28;20364;-73
2023/04/30 02:40:45;;;;;;;17.08;9.07;;;;;;;6.20;100.00;102254.06;5090948;28;20035;-73
2023/04/30 02:43:10;;;;;;;18.00;9.07;;;;;;;6.22;100.00;102256.56;5091045;28;20039;-73
2023/04/30 02:45:35;;;;;;;19.20;10.63;;;;;;;6.19;100.00;102246.25;5090916;28;20499;-74
2023/04/30 02:48:01;;;;;;;19.33;9.88;;;;;;;6.22;100.00;102241.50;5089515;28;20505;-73
2023/04/30 02:50:26;;;;;;;18.27;9.48;;;;;;;6.21;100.00;102236.34;5090653;28;20142;-73
2023/04/30 02:52:51;;;;;;;18.73;9.60;;;;;;;6.17;100.00;102246.38;5091061;28;20085;-74
2023/04/30 02:55:17;;;;;;;17.60;10.25;;;;;;;6.13;100.00;102234.34;5090791;28;20024;-74
2023/04/30 02:57:42;;;;;;;20.52;11.57;;;;;;;6.14;100.00;102239.53;5090713;28;20028;-74
2023/04/30 03:00:08;;;;;;;20.40;11.38;;;;;;;6.12;100.00;102246.75;5090637;28;20028;-73
2023/04/30 03:02:34;;;;;;;20.83;9.55;;;;;;;6.04;100.00;102233.34;5090541;28;20050;-74
2023/04/30 03:04:59;;;;;;;19.70;9.48;;;;;;;6.07;100.00;102248.97;5090525;28;20031;-73
2023/04/30 03:07:24;;;;;;;18.48;9.52;;;;;;;6.03;100.00;102234.34;5090514;28;20043;-73
2023/04/30 03:09:50;;;;;;;18.77;9.30;;;;;;;5.99;100.00;102243.50;5090391;28;20228;-74
2023/04/30 03:12:15;;;;;;;17.77;9.45;;;;;;;5.93;100.00;102241.34;5090544;28;20100;-74
2023/04/30 03:14:40;;;;;;;18.00;10.00;;;;;;;5.90;100.00;102253.06;5090214;28;20103;-74
2023/04/30 03:17:06;;;;;;;19.00;10.10;;;;;;;5.87;100.00;102248.03;5090101;28;20024;-74
2023/04/30 03:19:31;;;;;;;17.75;9.60;;;;;;;5.87;100.00;102250.66;5090155;28;20106;-74
2023/04/30 03:21:57;;;;;;;19.27;8.95;;;;;;;5.81;100.00;102247.69;5090317;28;20047;-74
2023/04/30 03:24:23;;;;;;;14.65;8.38;;;;;;;5.80;100.00;102251.31;5090293;28;20036;-74
2023/04/30 03:26:49;;;;;;;19.13;9.68;;;;;;;5.71;100.00;102243.19;5090199;28;20107;-74
2023/04/30 03:29:15;;;;;;;18.13;9.85;;;;;;;5.64;100.00;102249.97;5089992;28;20131;-74
2023/04/30 03:31:40;;;;;;;18.67;9.63;;;;;;;5.64;100.00;102257.09;5089780;28;20031;-73
2023/04/30 03:34:05;;;;;;;18.60;8.55;;;;;;;5.64;100.00;102262.38;5090093;28;20531;-74
2023/04/30 03:36:32;;;;;;;19.63;10.18;;;;;;;5.61;100.00;102254.69;5089942;28;20122;-73
2023/04/30 03:38:57;;;;;;;20.73;10.57;;;;;;;5.58;100.00;102254.94;5089821;28;20362;-73
2023/04/30 03:41:23;;;;;;;19.08;9.57;;;;;;;5.58;100.00;102258.44;5089907;28;20051;-73
2023/04/30 03:43:48;;;;;;;19.88;9.18;;;;;;;5.58;100.00;102257.56;5089827;28;20391;-73
2023/04/30 03:46:13;;;;;;;20.27;10.60;;;;;;;5.58;100.00;102262.88;5089876;28;20072;-73
2023/04/30 03:48:39;;;;;;;18.63;9.25;;;;;;;5.54;100.00;102254.34;5089641;28;20043;-73
2023/04/30 03:51:04;;;;;;;17.98;10.00;;;;;;;5.46;100.00;102241.78;5089600;28;20040;-74
2023/04/30 03:53:30;;;;;;;19.85;9.38;;;;;;;5.54;100.00;102262.31;5089482;28;20384;-73
2023/04/30 03:55:56;;;;;;;17.85;9.68;;;;;;;5.52;100.00;102260.75;5087961;28;20031;-74
2023/04/30 03:58:22;;;;;;;16.70;9.65;;;;;;;5.52;100.00;102260.75;5089360;28;20039;-73
2023/04/30 04:00:47;;;;;;;18.75;9.60;;;;;;;5.49;100.00;102265.31;5088221;28;20131;-73
2023/04/30 04:03:14;;;;;;;19.83;10.00;;;;;;;5.46;100.00;102254.16;5089648;28;20062;-73
2023/04/30 04:05:40;;;;;;;20.00;10.43;;;;;;;5.43;100.00;102255.25;5089579;28;20056;-73
2023/04/30 04:08:05;;;;;;;17.73;8.82;;;;;;;5.46;100.00;102256.81;5089629;28;20032;-73
2023/04/30 04:10:31;;;;;;;19.55;11.02;;;;;;;5.46;100.00;102256.81;5089087;28;20127;-74
2023/04/30 04:12:56;;;;;;;18.38;8.95;;;;;;;5.48;100.00;102262.81;5087875;28;20035;-73
2023/04/30 04:15:22;;;;;;;19.85;9.18;;;;;;;5.48;100.00;102257.53;5089122;28;20051;-74
2023/04/30 04:17:47;;;;;;;18.45;9.68;;;;;;;5.50;100.00;102268.81;5089171;28;20119;-73
2023/04/30 04:20:13;;;;;;;18.58;9.32;;;;;;;5.47;100.00;102267.25;5089375;28;20020;-73
2023/04/30 04:22:38;;;;;;;18.25;9.85;;;;;;;5.42;100.00;102247.44;5089109;28;20111;-74
2023/04/30 04:25:05;;;;;;;18.85;10.55;;;;;;;5.53;100.00;102265.94;5089253;28;20035;-74
2023/04/30 04:27:31;;;;;;;18.65;8.77;;;;;;;5.54;100.00;102270.25;5089206;28;20051;-74
2023/04/30 04:29:56;;;;;;;17.17;8.60;;;;;;;5.50;100.00;102263.50;5089122;28;20390;-74
2023/04/30 04:32:22;;;;;;;18.02;9.82;;;;;;;5.55;100.00;102261.31;5089285;28;20030;-74
2023/04/30 04:34:48;;;;;;;19.08;8.93;;;;;;;5.60;100.00;102269.72;5089097;28;20376;-73
2023/04/30 04:37:14;;;;;;;19.20;10.43;;;;;;;5.55;100.00;102257.84;5089134;28;20129;-74
2023/04/30 04:39:39;;;;;;;18.27;9.68;;;;;;;5.64;100.00;102262.38;5089212;28;20320;-74
2023/04/30 04:42:05;;;;;;;20.63;10.20;;;;;;;5.65;100.00;102259.59;5088082;28;20035;-74
2023/04/30 04:44:31;;;;;;;19.52;9.15;;;;;;;5.74;100.00;102271.22;5087746;28;20964;-74
2023/04/30 04:46:57;;;;;;;20.88;11.20;;;;;;;5.85;100.00;102267.66;5088965;28;20071;-74
2023/04/30 04:49:22;;;;;;;19.50;10.95;;;;;;;6.01;100.00;102270.69;5088202;28;20059;-74
2023/04/30 04:51:48;;;;;;;23.35;11.15;;;;;;;6.50;100.00;102269.09;5089178;28;20032;-74
2023/04/30 04:54:13;;;;;;;22.70;13.13;;;;;;;7.13;100.00;102278.56;5087479;28;20436;-74
2023/04/30 04:56:38;;;;;;;21.13;11.05;;;;;;;7.11;100.00;102273.38;5088917;28;20142;-74
2023/04/30 04:59:04;;;;;;;21.95;12.13;;;;;;;7.00;100.00;102273.53;5088863;28;20437;-74
2023/04/30 05:01:29;;;;;;;21.85;12.70;;;;;;;7.42;100.00;102274.09;5088952;28;20028;-73
2023/04/30 05:03:55;;;;;;;21.65;12.40;;;;;;;8.46;100.00;102273.25;5089201;28;20036;-74
2023/04/30 05:06:20;;;;;;;19.17;11.57;;;;;;;9.36;100.00;102285.69;5088931;28;20032;-74
2023/04/30 05:08:46;;;;;;;19.73;10.30;;;;;;;9.72;100.00;102292.78;5090209;28;20024;-74
2023/04/30 05:11:11;;;;;;;20.38;10.23;;;;;;;10.27;100.00;102290.69;5092225;28;20036;-74
2023/04/30 05:13:36;;;;;;;17.92;9.20;;;;;;;10.90;100.00;102288.56;5091051;28;20043;-74
2023/04/30 05:16:02;;;;;;;18.63;9.20;;;;;;;10.97;98.13;102292.25;5092165;28;20035;-74
2023/04/30 05:18:27;;;;;;;17.88;10.15;;;;;;;10.84;97.10;102298.03;5091220;28;20097;-74
2023/04/30 05:20:53;;;;;;;18.90;9.80;;;;;;;10.79;97.10;102295.03;5092366;28;20016;-74
2023/04/30 05:23:18;;;;;;;18.10;11.32;;;;;;;11.03;95.09;102290.75;5092308;28;20032;-74
2023/04/30 05:25:44;;;;;;;19.05;9.68;;;;;;;11.50;93.46;102292.78;5092082;28;20044;-74
2023/04/30 05:28:10;;;;;;;16.88;8.57;;;;;;;12.15;88.51;102302.59;5092123;28;20030;-74
2023/04/30 05:30:35;;;;;;;17.58;9.80;;;;;;;12.26;87.34;102287.03;5092087;28;20156;-74
2023/04/30 05:33:01;;;;;;;18.65;9.98;;;;;;;12.05;87.71;102294.75;5090731;28;20122;-74
2023/04/30 05:35:26;;;;;;;16.88;8.90;;;;;;;11.98;89.04;102283.09;5090821;28;20023;-74
2023/04/30 05:37:52;;;;;;;16.70;8.93;;;;;;;11.74;88.93;102284.78;5092006;28;20109;-74
2023/04/30 05:40:17;;;;;;;17.25;10.00;;;;;;;11.34;90.11;102281.13;5091973;28;20487;-74
2023/04/30 05:42:42;;;;;;;17.08;10.15;;;;;;;11.03;91.60;102286.25;5091994;28;20036;-74
2023/04/30 05:45:13;;;;;;;18.63;9.60;;;;;;;10.56;92.75;102283.28;5091620;28;20028;-74
2023/04/30 05:47:39;;;;;;;18.92;9.68;;;;;;;10.29;95.43;102282.50;5091849;28;20171;-74
2023/04/30 05:50:05;;;;;;;16.77;10.18;;;;;;;10.23;96.40;102285.78;5073362;28;20044;-74
2023/04/30 05:52:31;;;;;;;17.67;9.85;;;;;;;10.11;97.58;102285.19;5090612;28;20043;-74
2023/04/30 05:54:56;;;;;;;18.42;9.93;;;;;;;9.88;97.63;102285.75;5091758;28;20024;-74
2023/04/30 05:57:22;;;;;;;16.23;9.77;;;;;;;9.71;98.97;102283.97;5091618;28;20036;-74
2023/04/30 05:59:47;;;;;;;17.70;9.98;;;;;;;9.64;100.00;102270.44;5091581;28;20028;-74
2023/04/30 06:02:12;;;;;;;17.73;9.57;;;;;;;9.75;99.93;102288.00;5090398;28;20055;-74
2023/04/30 06:04:38;;;;;;;17.15;9.63;;;;;;;9.85;99.20;102293.19;5091655;28;20122;-74
2023/04/30 06:07:03;;;;;;;16.70;8.90;;;;;;;9.79;99.29;102285.84;5091645;28;20039;-74
2023/04/30 06:09:29;;;;;;;16.52;8.93;;;;;;;9.80;100.00;102282.22;5091359;28;20058;-74
2023/04/30 06:11:54;;;;;;;16.70;7.80;;;;;;;9.91;100.00;102273.94;5089944;28;20634;-74
2023/04/30 06:14:21;;;;;;;13.20;8.18;;;;;;;9.89;98.34;102281.25;5091210;28;20119;-74
2023/04/30 06:16:47;;;;;;;18.13;7.45;;;;;;;9.86;99.65;102287.72;5091229;28;20040;-74
2023/04/30 06:19:13;;;;;;;16.05;8.48;;;;;;;9.91;100.00;102273.94;5091006;28;20035;-74
2023/04/30 06:21:39;;;;;;;17.83;9.20;;;;;;;9.88;99.35;102276.94;5091212;28;20040;-74
2023/04/30 06:24:04;;;;;;;18.45;9.68;;;;;;;9.95;99.77;102279.78;5091137;28;20141;-74
2023/04/30 06:26:30;;;;;;;16.17;8.35;;;;;;;9.97;99.23;102261.81;5091292;28;20123;-74
2023/04/30 06:28:55;;;;;;;16.20;7.40;;;;;;;9.97;98.33;102273.31;5091128;28;20050;-74
2023/04/30 06:31:21;;;;;;;16.95;7.97;;;;;;;10.04;99.87;102279.69;5090798;28;20036;-74
2023/04/30 06:33:46;;;;;;;15.40;7.55;;;;;;;9.96;98.35;102265.47;5089773;28;20081;-74
2023/04/30 06:36:12;;;;;;;15.82;8.13;;;;;;;9.99;100.00;102276.66;5090868;28;20491;-74
2023/04/30 06:38:37;;;;;;;14.75;7.00;;;;;;;9.86;98.42;102274.41;5090894;28;20501;-74
2023/04/30 06:41:03;;;;;;;14.48;7.78;;;;;;;9.79;98.93;102280.50;5090592;28;20042;-74
2023/04/30 06:43:28;;;;;;;19.70;7.65;;;;;;;9.82;99.81;102278.41;5089508;28;20031;-74
2023/04/30 06:45:53;;;;;;;16.17;7.00;;;;;;;9.86;99.96;102287.72;5090337;28;20399;-74
2023/04/30 06:48:19;;;;;;;13.82;6.90;;;;;;;9.90;99.30;102288.25;5090678;28;20159;-74
2023/04/30 06:50:44;;;;;;;17.60;8.65;;;;;;;9.87;98.95;102280.56;5089976;28;20158;-74
2023/04/30 06:53:13;;;;;;;14.90;7.80;;;;;;;9.94;99.38;102286.94;5090605;28;20043;-74
2023/04/30 06:55:40;;;;;;;18.95;9.32;;;;;;;9.94;99.23;102283.44;5090385;28;20490;-74
2023/04/30 06:58:06;;;;;;;15.27;7.43;;;;;;;10.06;100.00;102284.84;5090273;28;20031;-74
2023/04/30 07:00:32;;;;;;;15.70;7.85;;;;;;;10.20;99.97;102286.94;5090353;28;20359;-74
2023/04/30 07:03:01;;;;;;;13.75;7.68;;;;;;;10.22;99.00;102282.28;5090534;28;20032;-74
2023/04/30 07:05:27;;;;;;;14.77;7.70;;;;;;;10.26;98.79;102280.94;5090455;28;20232;-74
2023/04/30 07:07:52;;;;;;;13.57;8.50;;;;;;;10.32;99.08;102279.50;5090317;28;20176;-74
2023/04/30 07:10:18;;;;;;;15.32;8.05;;;;;;;10.45;99.02;102287.06;5090029;28;20032;-74
2023/04/30 07:12:44;;;;;;;16.92;8.82;;;;;;;10.49;99.02;102283.09;5090199;28;20090;-74
2023/04/30 07:15:09;;;;;;;16.92;8.68;;;;;;;10.60;98.13;102288.13;5088816;28;20424;-74
2023/04/30 07:17:35;;;;;;;16.35;8.73;;;;;;;10.69;97.41;102291.69;5089095;28;20040;-75
2023/04/30 07:20:00;;;;;;;15.82;8.52;;;;;;;10.86;98.25;102282.72;5090085;28;20467;-74
2023/04/30 07:22:26;;;;;;;14.68;8.20;;;;;;;11.23;94.50;102280.59;5089500;28;20074;-74
2023/04/30 07:24:52;;;;;;;15.07;8.52;;;;;;;11.77;92.24;102281.75;5090040;28;20076;-75
2023/04/30 07:27:17;;;;;;;14.27;7.95;;;;;;;12.23;90.37;102270.47;5090118;28;20585;-74
2023/04/30 07:29:42;;;;;;;16.67;9.98;;;;;;;12.99;87.27;102281.47;5089771;28;20048;-74
2023/04/30 07:32:08;;;;;;;17.02;8.57;;;;;;;13.52;83.28;102291.34;5087997;28;20471;-74
2023/04/30 07:34:33;;;;;;;15.38;9.20;;;;;;;13.62;82.65;102280.34;5088693;28;20386;-74
2023/04/30 07:36:58;;;;;;;22.55;9.55;;;;;;;13.77;81.33;102281.19;5088418;28;20039;-75
2023/04/30 07:39:24;;;;;;;16.50;9.00;;;;;;;14.05;79.58;102279.78;5089498;28;20132;-75
2023/04/30 07:41:49;;;;;;;14.32;7.90;;;;;;;14.18;79.02;102288.00;5089713;28;20054;-75
2023/04/30 07:44:14;;;;;;;17.77;9.60;;;;;;;14.41;79.29;102285.22;5089138;28;20046;-74
2023/04/30 07:46:40;;;;;;;17.38;8.57;;;;;;;14.65;78.24;102274.19;5089561;28;20123;-75
2023/04/30 07:49:05;;;;;;;15.85;8.40;;;;;;;14.88;75.69;102279.41;5087987;28;20039;-74
2023/04/30 07:51:32;;;;;;;13.82;8.23;;;;;;;15.32;74.90;102275.69;5088918;28;20064;-74
2023/04/30 07:53:58;;;;;;;14.07;8.23;;;;;;;16.29;70.73;102278.66;5089532;28;20040;-75
2023/04/30 07:56:23;;;;;;;14.57;7.72;;;;;;;17.02;67.61;102273.56;5089316;28;20431;-75
2023/04/30 07:58:48;;;;;;;16.38;8.82;;;;;;;17.40;66.18;102279.22;5089510;28;20030;-75
2023/04/30 08:01:14;;;;;;;11.13;7.22;;;;;;;18.51;62.17;102270.28;5089385;28;20632;-75
2023/04/30 08:03:39;;;;;;;16.00;8.60;;;;;;;19.72;59.17;102275.75;5087588;28;20122;-75
2023/04/30 08:06:06;;;;;;;12.52;7.55;;;;;;;20.98;54.36;102271.53;5089339;28;20062;-74
2023/04/30 08:08:31;;;;;;;13.95;8.02;;;;;;;21.71;51.02;102280.41;5089568;28;20479;-75
2023/04/30 08:10:57;;;;;;;11.27;6.68;;;;;;;22.38;48.74;102272.66;5088743;28;20115;-75
2023/04/30 08:13:22;;;;;;;14.30;7.13;;;;;;;22.67;47.66;102276.22;5088694;28;20529;-75
2023/04/30 08:15:47;;;;;;;18.48;8.43;;;;;;;22.62;46.57;102283.47;5088407;28;20356;-75
2023/04/30 08:18:13;;;;;;;13.05;7.32;;;;;;;23.17;47.85;102277.41;5087286;28;20046;-75
2023/04/30 08:20:38;;;;;;;13.35;7.10;;;;;;;23.28;43.95;102279.22;5087138;28;20032;-75
2023/04/30 08:23:04;;;;;;;12.70;6.28;;;;;;;23.30;44.13;102279.81;5087061;28;20054;-75
2023/04/30 08:25:30;;;;;;;14.35;7.45;;;;;;;23.69;43.33;102282.59;5088426;28;20059;-75
2023/04/30 08:27:56;;;;;;;14.52;7.38;;;;;;;23.58;43.15;102281.63;5088358;28;20704;-75
2023/04/30 08:30:21;;;;;;;12.07;6.65;;;;;;;24.03;43.52;102285.28;5088378;28;20028;-75
2023/04/30 08:32:48;;;;;;;12.98;7.60;;;;;;;24.11;41.40;102287.56;5088447;28;20035;-75
2023/04/30 08:35:15;;;;;;;13.23;7.10;;;;;;;23.89;41.77;102278.53;5089092;28;20042;-74
2023/04/30 08:37:41;;;;;;;11.77;7.13;;;;;;;23.48;41.40;102281.47;5088107;28;20101;-74
2023/04/30 08:40:08;;;;;;;12.43;6.85;;;;;;;23.59;41.65;102277.00;5089222;28;20471;-75
2023/04/30 08:42:36;;;;;;;14.40;7.05;;;;;;;24.27;41.50;102283.13;5090070;28;20035;-75
2023/04/30 08:45:03;;;;;;;10.10;6.45;;;;;;;24.42;40.43;102271.59;5092871;28;20051;-75
2023/04/30 08:47:29;;;;;;;14.80;6.25;;;;;;;23.30;41.74;102276.28;5093127;28;20540;-75
2023/04/30 08:49:55;;;;;;;12.80;8.20;;;;;;;21.48;46.06;102273.06;5092779;28;20044;-75
2023/04/30 08:52:21;;;;;;;12.05;7.70;;;;;;;19.52;50.14;102262.38;5092989;28;20437;-75
2023/04/30 08:54:47;;;;;;;14.15;7.63;;;;;;;18.06;54.82;102281.03;5092857;28;20566;-74
2023/04/30 08:57:13;;;;;;;11.40;7.05;;;;;;;17.13;58.87;102270.25;5092892;28;20063;-75
2023/04/30 08:59:38;;;;;;;14.98;7.60;;;;;;;16.63;61.35;102267.81;5092732;28;20652;-75
2023/04/30 09:02:04;;;;;;;14.13;7.60;;;;;;;16.11;63.68;102269.28;5092860;28;20063;-74
2023/04/30 09:04:29;;;;;;;12.25;7.22;;;;;;;15.79;64.56;102276.09;5092419;28;20023;-74
2023/04/30 09:06:57;;;;;;;13.00;7.45;;;;;;;15.36;64.68;102270.78;5092727;28;20031;-74
2023/04/30 09:09:27;;;;;;;12.88;7.68;;;;;;;15.16;67.71;102262.53;5092679;28;20032;-74
2023/04/30 09:12:09;;;;;;;13.18;8.10;;;;;;;14.87;69.05;102266.97;5092846;28;20028;-73
2023/04/30 09:14:39;;;;;;;12.32;7.85;;;;;;;14.77;69.72;102263.78;5092055;28;20047;-74
2023/04/30 09:17:05;;;;;;;12.75;7.93;;;;;;;14.67;69.59;102258.72;5092464;28;20081;-77
2023/04/30 09:19:31;;;;;;;15.18;8.23;;;;;;;14.67;72.05;102257.88;5086924;28;20158;-74
2023/04/30 09:21:56;;;;;;;15.85;8.07;;;;;;;14.71;72.71;102263.72;5086223;28;20098;-74
2023/04/30 09:24:23;;;;;;;13.50;7.90;;;;;;;14.70;72.41;102265.56;5084082;28;20173;-74
2023/04/30 09:26:49;;;;;;;18.85;8.93;;;;;;;14.69;72.98;102259.34;5086245;28;20040;-74
2023/04/30 09:29:15;;;;;;;15.32;8.70;;;;;;;14.82;72.32;102258.66;5084927;28;20570;-74
2023/04/30 09:31:47;;;;;;;15.48;7.82;;;;;;;14.78;71.80;102252.03;5085683;28;20039;-74
2023/04/30 09:34:13;;;;;;;;;;;;;;;14.77;72.03;102257.56;5085766;28;20027;-75
2023/04/30 09:36:54;;;;;;;15.95;7.40;;;;;;;14.58;71.65;102256.34;5084347;28;19988;-74
2023/04/30 09:39:20;;;;;;;11.27;5.97;;;;;;;14.55;69.88;102254.03;5085883;28;20505;-74
2023/04/30 09:41:45;;;;;;;13.30;6.07;;;;;;;14.52;68.26;102257.06;5085779;28;20135;-73
2023/04/30 09:44:28;;;;;;;12.52;6.82;;;;;;;14.58;69.99;102248.28;5086108;28;20036;-74
2023/04/30 09:46:55;;;;;;;13.18;7.35;;;;;;;14.65;72.36;102250.00;5084670;28;20418;-74
2023/04/30 09:49:20;;;;;;;15.07;7.32;;;;;;;14.64;71.34;102242.13;5085036;28;20134;-74
2023/04/30 09:51:54;;;;;;;11.60;6.93;;;;;;;14.66;72.16;102243.63;5085747;28;20574;-74
2023/04/30 09:54:24;;;;;;;13.60;7.68;;;;;;;14.71;71.71;102234.16;5083900;28;20024;-74
2023/04/30 09:56:52;;;;;;;14.00;7.80;;;;;;;14.86;73.34;102243.84;5085348;28;20024;-74
2023/04/30 09:59:21;;;;;;;14.70;7.00;;;;;;;14.90;71.16;102242.41;5084609;28;20036;-74
2023/04/30 10:01:48;;;;;;;12.43;7.03;;;;;;;14.85;71.31;102239.47;5085927;28;20145;-74
2023/04/30 10:04:14;;;;;;;15.18;7.90;;;;;;;14.94;71.67;102240.19;5085109;28;20028;-74
2023/04/30 10:06:41;;;;;;;14.52;8.02;;;;;;;15.13;71.23;102228.78;5085470;28;20031;-74
2023/04/30 10:09:10;;;;;;;14.18;7.18;;;;;;;15.26;71.24;102224.56;5085331;28;20032;-75
2023/04/30 10:11:37;;;;;;;10.18;6.45;;;;;;;15.38;69.84;102225.72;5084965;28;20068;-74
2023/04/30 10:14:08;;;;;;;8.70;5.88;;;;;;;15.53;69.12;102217.53;5085195;28;20115;-74
2023/04/30 10:16:46;;;;;;;;;;;;;;;15.68;69.49;102230.88;5085484;28;20402;-74
2023/04/30 10:19:23;;;;;;;11.82;6.28;;;;;;;15.54;68.22;102219.22;5084757;28;20295;-74
2023/04/30 10:21:49;;;;;;;10.95;6.28;;;;;;;15.39;66.45;102232.75;5084607;28;20028;-74
2023/04/30 10:24:18;;;;;;;10.07;5.40;;;;;;;15.39;68.64;102222.00;5085258;28;20054;-74
2023/04/30 10:26:46;;;;;;;11.75;5.28;;;;;;;15.52;67.80;102230.16;5085155;28;20443;-74
2023/04/30 10:29:13;;;;;;;10.43;5.97;;;;;;;15.56;65.58;102230.59;5085098;28;20028;-74
2023/04/30 10:31:41;;;;;;;10.98;5.78;;;;;;;15.63;65.17;102231.47;5084500;28;20028;-74
2023/04/30 10:34:32;;;;;;;9.63;5.07;;;;;;;15.75;65.09;102218.34;5084272;28;20012;-74
2023/04/30 10:37:03;;;;;;;10.18;6.10;;;;;;;15.94;69.41;102211.41;5084720;28;20024;-74
2023/04/30 10:39:29;;;;;;;8.18;5.20;;;;;;;15.99;65.41;102211.66;5085185;28;20023;-74
2023/04/30 10:42:06;;;;;;;13.43;6.13;;;;;;;15.95;64.53;102200.44;5083554;28;20024;-74
2023/04/30 10:44:33;;;;;;;9.00;5.03;;;;;;;15.84;63.29;102211.78;5085285;28;20493;-75
2023/04/30 10:47:00;;;;;;;9.45;5.72;;;;;;;15.80;66.86;102205.16;5084176;28;20382;-74
2023/04/30 10:49:26;;;;;;;9.30;5.50;;;;;;;15.91;67.13;102199.19;5084657;28;20024;-74
2023/04/30 10:51:53;;;;;;;9.40;5.65;;;;;;;15.90;65.28;102191.31;5083164;28;20054;-74
2023/04/30 10:54:28;;;;;;;11.02;5.03;;;;;;;15.69;64.49;102190.38;5083961;28;20036;-74
2023/04/30 10:57:19;;;;;;;15.60;6.10;;;;;;;15.82;66.22;102200.38;5084356;28;20122;-74
2023/04/30 11:00:15;;;;;;;8.02;5.05;;;;;;;15.88;65.61;102178.06;5084131;28;20691;-74
2023/04/30 11:02:42;;;;;;;10.10;6.57;;;;;;;15.97;64.52;102179.56;5084235;28;20047;-74
2023/04/30 11:05:09;;;;;;;10.18;6.18;;;;;;;16.04;63.57;102182.28;5084413;28;20471;-74
2023/04/30 11:07:35;;;;;;;11.25;6.97;;;;;;;16.07;64.13;102181.06;5082421;28;20066;-74
2023/04/30 11:10:01;;;;;;;9.55;5.70;;;;;;;16.04;63.07;102184.97;5084173;28;20036;-74
2023/04/30 11:12:27;;;;;;;10.82;5.90;;;;;;;16.08;63.79;102172.75;5083720;28;20020;-75
2023/04/30 11:15:00;;;;;;;11.75;6.30;;;;;;;16.07;64.05;102176.50;5083891;28;20036;-74
2023/04/30 11:17:26;;;;;;;9.68;6.03;;;;;;;16.06;63.55;102171.31;5084150;28;20040;-74